createdAt,value
2022-11-16T00:00:22.629Z,100039.84
2022-11-16T00:02:51.897Z,100042.34
2022-11-16T00:05:23.060Z,100037.06
2022-11-16T00:07:52.455Z,100038.72
2022-11-16T00:10:19.303Z,100034.22
2022-11-16T00:12:46.178Z,100046.28
2022-11-16T00:15:13.007Z,100040.81
2022-11-16T00:17:39.813Z,100039.28
2022-11-16T00:20:07.266Z,100029.12
2022-11-16T00:22:34.084Z,100027.37
2022-11-16T00:25:00.851Z,100032.19
2022-11-16T00:27:27.715Z,100024.28
2022-11-16T00:29:54.582Z,100024.97
2022-11-16T00:32:21.446Z,100013.34
2022-11-16T00:34:48.302Z,100007.09
2022-11-16T00:37:15.093Z,100010.44
2022-11-16T00:39:41.913Z,100003.88
2022-11-16T00:42:08.808Z,100001.94
2022-11-16T00:44:35.811Z,100003.37
2022-11-16T00:47:02.625Z,99990.66
2022-11-16T00:49:29.520Z,99989.62
2022-11-16T00:51:56.318Z,99985.69
2022-11-16T00:54:23.157Z,99991.25
2022-11-16T00:56:49.943Z,99991.78
2022-11-16T00:59:16.949Z,99984.53
2022-11-16T01:01:43.931Z,99988.66
2022-11-16T01:04:10.880Z,99979.44
2022-11-16T01:06:37.724Z,99962.66
2022-11-16T01:09:04.644Z,99964.22
2022-11-16T01:11:49.982Z,99951.56
2022-11-16T01:14:16.896Z,99958.44
2022-11-16T01:16:43.663Z,99950.41
2022-11-16T01:19:10.710Z,99955.50
2022-11-16T01:21:45.121Z,99937.09
2022-11-16T01:24:11.859Z,99945.63
2022-11-16T01:26:38.762Z,99939.84
2022-11-16T01:29:05.575Z,99940.34
2022-11-16T01:31:32.389Z,99939.50
2022-11-16T01:33:59.255Z,99932.34
2022-11-16T01:36:26.057Z,99924.44
2022-11-16T01:38:52.937Z,99930.91
2022-11-16T01:41:22.111Z,99930.72
2022-11-16T01:43:55.542Z,99923.50
2022-11-16T01:46:22.948Z,99925.37
2022-11-16T01:48:58.740Z,99924.03
2022-11-16T01:51:25.855Z,99915.44
2022-11-16T01:53:52.775Z,99909.25
2022-11-16T01:56:20.568Z,99899.44
2022-11-16T01:58:47.453Z,99895.63
2022-11-16T02:01:14.384Z,99887.78
2022-11-16T02:03:41.514Z,99890.47
2022-11-16T02:06:20.239Z,99886.72
2022-11-16T02:09:19.543Z,99889.63
2022-11-16T02:12:01.577Z,99878.69
2022-11-16T02:15:08.642Z,99878.50
2022-11-16T02:18:16.950Z,99876.59
2022-11-16T02:21:11.306Z,99879.09
2022-11-16T02:23:49.887Z,99879.84
2022-11-16T02:26:47.038Z,99874.88
2022-11-16T02:29:21.053Z,99867.81
2022-11-16T02:31:51.626Z,99863.28
2022-11-16T02:34:20.234Z,99860.41
2022-11-16T02:36:49.211Z,99864.87
2022-11-16T02:39:20.017Z,99860.41
2022-11-16T02:41:48.551Z,99854.00
2022-11-16T02:44:33.244Z,99855.81
2022-11-16T02:47:05.051Z,99848.84
2022-11-16T02:49:35.398Z,99847.34
2022-11-16T02:52:02.362Z,99834.97
2022-11-16T02:54:29.239Z,99840.13
2022-11-16T02:57:05.184Z,99831.41
2022-11-16T02:59:41.982Z,99830.06
2022-11-16T03:02:27.014Z,99824.56
2022-11-16T03:05:00.140Z,99826.06
2022-11-16T03:07:30.831Z,99824.97
2022-11-16T03:09:58.369Z,99821.25
2022-11-16T03:12:29.308Z,99817.72
2022-11-16T03:14:59.515Z,99814.75
2022-11-16T03:17:41.789Z,99819.06
2022-11-16T03:20:27.906Z,99817.25
2022-11-16T03:22:58.804Z,99815.41
2022-11-16T03:25:30.077Z,99812.19
2022-11-16T03:27:56.908Z,99808.47
2022-11-16T03:30:30.511Z,99804.00
2022-11-16T03:33:18.092Z,99798.66
2022-11-16T03:36:02.661Z,99803.03
2022-11-16T03:38:30.681Z,99797.72
2022-11-16T03:41:00.547Z,99792.28
2022-11-16T03:43:28.108Z,99797.53
2022-11-16T03:45:55.209Z,99799.22
2022-11-16T03:48:21.982Z,99796.56
2022-11-16T03:50:49.058Z,99793.16
2022-11-16T03:53:15.919Z,99786.06
2022-11-16T03:55:48.505Z,99788.66
2022-11-16T03:58:18.654Z,99790.47
2022-11-16T04:00:45.729Z,99778.84
2022-11-16T04:03:12.668Z,99771.78
2022-11-16T04:05:58.452Z,99778.19
2022-11-16T04:08:44.384Z,99768.94
2022-11-16T04:11:33.721Z,99766.25
2022-11-16T04:14:19.360Z,99772.25
2022-11-16T04:17:04.715Z,99773.97
2022-11-16T04:19:51.773Z,99765.03
2022-11-16T04:22:44.932Z,99759.09
2022-11-16T04:25:16.343Z,99756.38
2022-11-16T04:28:01.820Z,99753.50
2022-11-16T04:30:48.657Z,99751.09
2022-11-16T04:33:34.165Z,99741.47
2022-11-16T04:36:20.859Z,99736.91
2022-11-16T04:38:47.955Z,99743.22
2022-11-16T04:41:33.981Z,99748.72
2022-11-16T04:44:00.768Z,99746.22
2022-11-16T04:46:47.694Z,99739.00
2022-11-16T04:49:14.514Z,99733.66
2022-11-16T04:51:41.351Z,99733.59
2022-11-16T04:54:08.176Z,99742.44
2022-11-16T04:56:34.996Z,99737.00
2022-11-16T04:59:01.752Z,99736.91
2022-11-16T05:01:49.410Z,99742.25
2022-11-16T05:04:16.368Z,99738.72
2022-11-16T05:06:43.162Z,99734.91
2022-11-16T05:09:12.157Z,99733.19
2022-11-16T05:11:38.996Z,99736.59
2022-11-16T05:14:06.294Z,99730.22
2022-11-16T05:16:34.134Z,99729.31
2022-11-16T05:19:19.423Z,99729.19
2022-11-16T05:21:46.300Z,99727.28
2022-11-16T05:24:32.089Z,99727.37
2022-11-16T05:26:59.155Z,99722.91
2022-11-16T05:29:26.355Z,99713.09
2022-11-16T05:31:58.656Z,99715.97
2022-11-16T05:34:25.853Z,99713.38
2022-11-16T05:36:52.828Z,99710.81
2022-11-16T05:39:19.788Z,99715.38
2022-11-16T05:41:47.291Z,99710.81
2022-11-16T05:44:15.127Z,99712.50
2022-11-16T05:46:42.516Z,99709.94
2022-11-16T05:49:10.526Z,99701.19
2022-11-16T05:51:39.445Z,99696.72
2022-11-16T05:54:06.744Z,99688.50
2022-11-16T05:56:34.788Z,99692.03
2022-11-16T05:59:01.859Z,99701.72
2022-11-16T06:01:28.994Z,99691.94
2022-11-16T06:03:56.084Z,99688.50
2022-11-16T06:06:22.943Z,99680.50
2022-11-16T06:08:49.781Z,99674.19
2022-11-16T06:11:16.611Z,99671.66
2022-11-16T06:13:43.534Z,99679.53
2022-11-16T06:16:10.485Z,99679.53
2022-11-16T06:18:42.472Z,99669.62
2022-11-16T06:21:10.502Z,99677.72
2022-11-16T06:23:37.329Z,99669.62
2022-11-16T06:26:05.101Z,99656.56
2022-11-16T06:28:32.906Z,99660.59
2022-11-16T06:31:00.276Z,99662.69
2022-11-16T06:33:33.515Z,99672.87
2022-11-16T06:36:02.305Z,99671.13
2022-11-16T06:38:29.976Z,99665.59
2022-11-16T06:40:58.481Z,99676.09
2022-11-16T06:43:26.054Z,99668.00
2022-11-16T06:45:55.216Z,99673.25
2022-11-16T06:48:22.444Z,99671.63
2022-11-16T06:50:50.551Z,99669.91
2022-11-16T06:53:17.956Z,99677.81
2022-11-16T06:55:45.082Z,99671.50
2022-11-16T06:58:12.370Z,99666.09
2022-11-16T07:00:39.502Z,99667.78
2022-11-16T07:03:06.675Z,99662.00
2022-11-16T07:05:33.581Z,99656.66
2022-11-16T07:08:00.565Z,99656.16
2022-11-16T07:10:27.483Z,99655.09
2022-11-16T07:12:54.409Z,99646.91
2022-11-16T07:15:21.272Z,99643.09
2022-11-16T07:17:48.101Z,99640.41
2022-11-16T07:20:15.172Z,99649.16
2022-11-16T07:22:42.025Z,99641.16
2022-11-16T07:25:09.347Z,99638.28
2022-11-16T07:27:36.363Z,99631.81
2022-11-16T07:30:03.887Z,99617.91
2022-11-16T07:32:31.146Z,99635.03
2022-11-16T07:34:59.480Z,99635.03
2022-11-16T07:37:26.648Z,99633.22
2022-11-16T07:39:53.638Z,99631.03
2022-11-16T07:42:20.604Z,99629.88
2022-11-16T07:44:47.353Z,99626.25
2022-11-16T07:47:14.259Z,99623.28
2022-11-16T07:49:41.220Z,99623.28
2022-11-16T07:52:10.172Z,99622.22
2022-11-16T07:54:37.231Z,99618.63
2022-11-16T07:57:04.197Z,99613.00
2022-11-16T07:59:31.168Z,99611.31
2022-11-16T08:01:59.335Z,99612.72
2022-11-16T08:04:26.424Z,99619.66
2022-11-16T08:06:53.358Z,99612.81
2022-11-16T08:09:20.358Z,99622.13
2022-11-16T08:11:47.293Z,99621.94
2022-11-16T08:14:15.412Z,99623.62
2022-11-16T08:16:42.248Z,99615.62
2022-11-16T08:19:09.159Z,99609.22
2022-11-16T08:21:36.047Z,99608.78
2022-11-16T08:24:03.053Z,99603.78
2022-11-16T08:26:30.110Z,99607.97
2022-11-16T08:28:57.280Z,99595.56
2022-11-16T08:31:26.655Z,99594.59
2022-11-16T08:33:53.754Z,99589.81
2022-11-16T08:36:20.810Z,99588.75
2022-11-16T08:38:48.642Z,99589.56
2022-11-16T08:41:16.031Z,99581.13
2022-11-16T08:43:44.618Z,99582.63
2022-11-16T08:46:11.865Z,99591.94
2022-11-16T08:48:39.202Z,99572.19
2022-11-16T08:51:17.397Z,99580.50
2022-11-16T08:53:48.072Z,99582.94
2022-11-16T08:56:16.238Z,99592.38
2022-11-16T08:58:53.785Z,99582.94
2022-11-16T09:01:25.154Z,99601.78
2022-11-16T09:03:52.726Z,99599.75
2022-11-16T09:06:19.762Z,99603.13
2022-11-16T09:08:47.093Z,99597.97
2022-11-16T09:11:16.911Z,99594.91
2022-11-16T09:13:45.323Z,99596.09
2022-11-16T09:16:12.540Z,99598.88
2022-11-16T09:18:39.839Z,99598.34
2022-11-16T09:21:07.006Z,99590.31
2022-11-16T09:23:34.139Z,99580.41
2022-11-16T09:26:05.549Z,99572.94
2022-11-16T09:28:33.101Z,99568.25
2022-11-16T09:31:02.522Z,99566.50
2022-11-16T09:33:30.525Z,99564.72
2022-11-16T09:36:07.117Z,99551.03
2022-11-16T09:38:55.785Z,99553.25
2022-11-16T09:41:52.398Z,99557.44
2022-11-16T09:44:46.758Z,99564.78
2022-11-16T09:47:21.637Z,99564.59
2022-11-16T09:50:01.501Z,99569.72
2022-11-16T09:52:45.447Z,99564.47
2022-11-16T09:55:26.600Z,99570.06
2022-11-16T09:57:56.926Z,99554.03
2022-11-16T10:00:24.422Z,99544.63
2022-11-16T10:03:06.597Z,99529.66
2022-11-16T10:05:43.428Z,99536.50
2022-11-16T10:08:25.219Z,99531.38
2022-11-16T10:11:11.967Z,99530.41
2022-11-16T10:13:55.727Z,99535.63
2022-11-16T10:16:49.864Z,99527.19
2022-11-16T10:19:54.359Z,99529.31
2022-11-16T10:22:53.251Z,99523.47
2022-11-16T10:25:21.883Z,99519.09
2022-11-16T10:28:34.137Z,99520.59
2022-11-16T10:31:13.850Z,99519.63
2022-11-16T10:33:42.859Z,99513.50
2022-11-16T10:36:13.671Z,99512.66
2022-11-16T10:38:41.779Z,99501.97
2022-11-16T10:41:14.641Z,99487.34
2022-11-16T10:43:42.438Z,99487.91
2022-11-16T10:46:31.596Z,99485.38
2022-11-16T10:49:18.731Z,99483.44
2022-11-16T10:51:45.633Z,99475.09
2022-11-16T10:54:14.101Z,99471.47
2022-11-16T10:56:42.718Z,99473.06
2022-11-16T10:59:14.225Z,99471.31
2022-11-16T11:01:50.236Z,99473.81
2022-11-16T11:04:18.710Z,99467.84
2022-11-16T11:06:47.914Z,99456.94
2022-11-16T11:09:14.859Z,99458.19
2022-11-16T11:12:00.663Z,99460.78
2022-11-16T11:14:27.475Z,99458.59
2022-11-16T11:16:54.461Z,99447.41
2022-11-16T11:19:27.521Z,99436.59
2022-11-16T11:21:59.417Z,99441.44
2022-11-16T11:24:44.109Z,99431.78
2022-11-16T11:27:12.332Z,99430.44
2022-11-16T11:29:41.785Z,99434.16
2022-11-16T11:32:19.447Z,99432.53
2022-11-16T11:35:00.357Z,99426.34
2022-11-16T11:37:34.158Z,99421.19
2022-11-16T11:40:09.843Z,99411.16
2022-11-16T11:42:38.968Z,99408.81
2022-11-16T11:45:08.249Z,99410.28
2022-11-16T11:47:59.053Z,99408.25
2022-11-16T11:50:39.157Z,99404.09
2022-11-16T11:53:12.085Z,99408.28
2022-11-16T11:55:39.206Z,99392.38
2022-11-16T11:58:06.442Z,99401.53
2022-11-16T12:00:56.816Z,99393.63
2022-11-16T12:03:41.713Z,99395.00
2022-11-16T12:06:10.144Z,99395.53
2022-11-16T12:09:02.575Z,99396.50
2022-11-16T12:11:33.168Z,99394.81
2022-11-16T12:14:23.275Z,99397.25
2022-11-16T12:16:53.138Z,99392.00
2022-11-16T12:19:20.158Z,99393.00
2022-11-16T12:22:28.632Z,99399.94
2022-11-16T12:25:25.173Z,99394.25
2022-11-16T12:28:04.135Z,99396.38
2022-11-16T12:30:33.415Z,99398.37
2022-11-16T12:33:18.013Z,99399.13
2022-11-16T12:35:51.235Z,99393.16
2022-11-16T12:38:23.100Z,99390.34
2022-11-16T12:41:14.310Z,99386.75
2022-11-16T12:44:00.257Z,99389.31
2022-11-16T12:46:51.472Z,99376.19
2022-11-16T12:50:00.071Z,99378.41
2022-11-16T12:52:57.834Z,99369.94
2022-11-16T12:55:43.913Z,99375.78
2022-11-16T12:58:37.567Z,99371.09
2022-11-16T13:01:37.671Z,99367.63
2022-11-16T13:04:18.861Z,99334.25
2022-11-16T13:06:52.021Z,99365.50
2022-11-16T13:09:22.757Z,99365.19
2022-11-16T13:11:55.834Z,99355.91
2022-11-16T13:14:44.801Z,99361.00
2022-11-16T13:17:21.479Z,99322.81
2022-11-16T13:19:58.334Z,99352.72
2022-11-16T13:22:26.927Z,99352.59
2022-11-16T13:25:06.519Z,99345.78
2022-11-16T13:27:38.372Z,99340.31
2022-11-16T13:30:23.616Z,99358.34
2022-11-16T13:33:22.612Z,99347.56
2022-11-16T13:35:49.559Z,99352.78
2022-11-16T13:38:54.282Z,99352.28
2022-11-16T13:41:43.215Z,99356.94
2022-11-16T13:44:14.703Z,99354.56
2022-11-16T13:46:55.894Z,99354.28
2022-11-16T13:49:30.903Z,99358.88
2022-11-16T13:52:22.735Z,99358.78
2022-11-16T13:54:55.786Z,99355.81
2022-11-16T13:57:27.922Z,99357.72
2022-11-16T14:00:00.562Z,99353.75
2022-11-16T14:02:37.720Z,99351.94
2022-11-16T14:05:06.678Z,99349.59
2022-11-16T14:07:40.543Z,99346.47
2022-11-16T14:10:08.115Z,99348.19
2022-11-16T14:12:38.134Z,99348.94
2022-11-16T14:15:25.261Z,99343.28
2022-11-16T14:17:57.196Z,99346.19
2022-11-16T14:20:53.276Z,99338.72
2022-11-16T14:23:37.282Z,99334.47
2022-11-16T14:26:38.508Z,99321.31
2022-11-16T14:29:23.269Z,99329.66
2022-11-16T14:31:57.922Z,99323.34
2022-11-16T14:34:27.621Z,99325.69
2022-11-16T14:36:55.149Z,99325.91
2022-11-16T14:39:37.344Z,99316.81
2022-11-16T14:42:24.305Z,99320.25
2022-11-16T14:45:01.244Z,99327.06
2022-11-16T14:47:29.747Z,99317.34
2022-11-16T14:49:57.206Z,99320.59
2022-11-16T14:52:36.200Z,99330.81
2022-11-16T14:55:06.943Z,99324.06
2022-11-16T14:57:33.716Z,99328.22
2022-11-16T15:00:20.637Z,99325.19
2022-11-16T15:02:51.893Z,99321.50
2022-11-16T15:05:22.569Z,99313.50
2022-11-16T15:07:51.713Z,99309.09
2022-11-16T15:10:21.019Z,99303.66
2022-11-16T15:12:51.696Z,99305.81
2022-11-16T15:15:22.964Z,99309.31
2022-11-16T15:18:08.186Z,99301.81
2022-11-16T15:20:37.525Z,99305.34
2022-11-16T15:23:06.245Z,99303.44
2022-11-16T15:25:52.645Z,99305.88
2022-11-16T15:28:23.583Z,99307.47
2022-11-16T15:30:55.545Z,99297.41
2022-11-16T15:33:28.441Z,99300.19
2022-11-16T15:35:55.729Z,99301.38
2022-11-16T15:38:32.982Z,99292.75
2022-11-16T15:41:02.371Z,99292.50
2022-11-16T15:43:49.583Z,99297.09
2022-11-16T15:46:29.618Z,99292.50
2022-11-16T15:48:57.248Z,99301.16
2022-11-16T15:51:24.250Z,99289.38
2022-11-16T15:53:53.984Z,99290.69
2022-11-16T15:56:26.933Z,99294.84
2022-11-16T15:59:01.803Z,99284.63
2022-11-16T16:01:29.732Z,99279.47
2022-11-16T16:04:03.208Z,99276.72
2022-11-16T16:07:05.808Z,99265.09
2022-11-16T16:09:40.564Z,99281.94
2022-11-16T16:12:24.016Z,99284.81
2022-11-16T16:14:52.206Z,99278.41
2022-11-16T16:17:29.310Z,99288.00
2022-11-16T16:20:01.295Z,99286.31
2022-11-16T16:22:30.891Z,99280.97
2022-11-16T16:24:58.108Z,99281.94
2022-11-16T16:27:27.355Z,99288.00
2022-11-16T16:29:57.197Z,99280.97
2022-11-16T16:32:29.332Z,99290.59
2022-11-16T16:34:58.275Z,99276.47
2022-11-16T16:37:32.582Z,99288.62
2022-11-16T16:40:00.076Z,99280.62
2022-11-16T16:42:27.285Z,99276.87
2022-11-16T16:44:54.216Z,99272.38
2022-11-16T16:47:21.049Z,99264.47
2022-11-16T16:49:49.108Z,99266.41
2022-11-16T16:52:16.642Z,99261.06
2022-11-16T16:57:01.339Z,99254.13
2022-11-16T16:59:30.125Z,99260.44
2022-11-16T17:01:57.831Z,99254.47
2022-11-16T17:04:25.317Z,99262.37
2022-11-16T17:06:53.214Z,99250.84
2022-11-16T17:09:20.464Z,99257.44
2022-11-16T17:11:48.067Z,99264.47
2022-11-16T17:14:14.908Z,99261.69
2022-11-16T17:16:41.890Z,99264.47
2022-11-16T17:19:08.946Z,99264.47
2022-11-16T17:21:36.137Z,99267.91
2022-11-16T17:24:03.250Z,99269.81
2022-11-16T17:26:30.189Z,99272.50
2022-11-16T17:28:57.693Z,99264.59
2022-11-16T17:31:25.607Z,99259.13
2022-11-16T17:33:52.907Z,99257.69
2022-11-16T17:36:20.478Z,99260.44
2022-11-16T17:38:47.589Z,99245.72
2022-11-16T17:41:16.785Z,99259.94
2022-11-16T17:43:45.244Z,99250.97
2022-11-16T17:46:17.822Z,99237.19
2022-11-16T17:48:46.275Z,99247.78
2022-11-16T17:51:20.826Z,99254.09
2022-11-16T17:53:49.669Z,99247.03
2022-11-16T17:56:19.499Z,99246.31
2022-11-16T17:58:46.987Z,99242.66
2022-11-16T18:01:14.978Z,99231.00
2022-11-16T18:03:42.167Z,99225.91
2022-11-16T18:06:13.397Z,99237.63
2022-11-16T18:08:41.629Z,99229.75
2022-11-16T18:11:28.451Z,99240.22
2022-11-16T18:14:05.682Z,99229.53
2022-11-16T18:16:34.132Z,99229.41
2022-11-16T18:19:03.769Z,99228.31
2022-11-16T18:21:31.718Z,99231.00
2022-11-16T18:23:59.466Z,99230.03
2022-11-16T18:26:26.391Z,99224.56
2022-11-16T18:28:53.995Z,99224.34
2022-11-16T18:31:22.992Z,99224.25
2022-11-16T18:33:50.095Z,99220.22
2022-11-16T18:36:18.495Z,99224.34
2022-11-16T18:38:45.917Z,99215.47
2022-11-16T18:41:12.949Z,99209.16
2022-11-16T18:43:41.502Z,99214.72
2022-11-16T18:46:10.087Z,99215.34
2022-11-16T18:48:37.487Z,99218.38
2022-11-16T18:51:04.828Z,99214.72
2022-11-16T18:53:33.303Z,99216.47
2022-11-16T18:56:00.735Z,99217.41
2022-11-16T19:01:16.848Z,99222.75
2022-11-16T19:03:44.094Z,99223.50
2022-11-16T19:06:12.041Z,99218.38
2022-11-16T19:08:40.345Z,99218.84
2022-11-16T19:11:12.489Z,99217.75
2022-11-16T19:13:42.620Z,99219.69
2022-11-16T19:16:11.522Z,99215.56
2022-11-16T19:18:39.157Z,99210.44
2022-11-16T19:21:08.453Z,99214.66
2022-11-16T19:23:42.957Z,99228.44
2022-11-16T19:26:12.665Z,99230.38
2022-11-16T19:28:41.854Z,99212.44
2022-11-16T19:31:10.219Z,99226.47
2022-11-16T19:33:37.952Z,99228.44
2022-11-16T19:36:09.672Z,99221.19
2022-11-16T19:38:38.090Z,99214.16
2022-11-16T19:41:06.148Z,99212.44
2022-11-16T19:43:33.867Z,99213.31
2022-11-16T19:46:09.083Z,99213.63
2022-11-16T19:48:36.206Z,99209.97
2022-11-16T19:51:09.180Z,99206.59
2022-11-16T19:53:37.463Z,99206.31
2022-11-16T19:56:05.863Z,99203.56
2022-11-16T19:58:38.271Z,99193.09
2022-11-16T20:01:08.004Z,99197.59
2022-11-16T20:03:35.410Z,99193.19
2022-11-16T20:06:07.330Z,99200.50
2022-11-16T20:08:35.247Z,99198.66
2022-11-16T20:11:09.274Z,99188.44
2022-11-16T20:13:39.293Z,99200.37
2022-11-16T20:16:07.442Z,99200.28
2022-11-16T20:18:35.440Z,99205.03
2022-11-16T20:21:05.353Z,99201.88
2022-11-16T20:23:37.469Z,99208.44
2022-11-16T20:26:10.010Z,99212.41
2022-11-16T20:28:38.838Z,99212.16
2022-11-16T20:31:14.636Z,99210.34
2022-11-16T20:33:42.476Z,99210.13
2022-11-16T20:36:11.095Z,99205.44
2022-11-16T20:38:39.091Z,99199.97
2022-11-16T20:41:14.214Z,99191.13
2022-11-16T20:43:42.456Z,99191.34
2022-11-16T20:46:13.612Z,99187.22
2022-11-16T20:48:42.497Z,99185.25
2022-11-16T20:51:11.285Z,99193.69
2022-11-16T20:53:38.753Z,99188.56
2022-11-16T20:56:07.579Z,99176.19
2022-11-16T20:58:35.058Z,99176.41
2022-11-16T21:01:07.281Z,99178.78
2022-11-16T21:03:34.991Z,99170.16
2022-11-16T21:06:02.438Z,99168.94
2022-11-16T21:08:32.556Z,99162.75
2022-11-16T21:10:59.432Z,99160.94
2022-11-16T21:13:44.893Z,99163.91
2022-11-16T21:16:14.250Z,99171.59
2022-11-16T21:18:41.399Z,99174.03
2022-11-16T21:21:12.416Z,99173.03
2022-11-16T21:23:44.948Z,99177.44
2022-11-16T21:26:13.575Z,99165.66
2022-11-16T21:28:41.273Z,99169.44
2022-11-16T21:31:10.978Z,99165.25
2022-11-16T21:33:38.218Z,99170.59
2022-11-16T21:36:11.716Z,99184.56
2022-11-16T21:38:39.033Z,99186.41
2022-11-16T21:41:06.635Z,99184.72
2022-11-16T21:43:36.262Z,99174.88
2022-11-16T21:46:08.166Z,99171.19
2022-11-16T21:48:36.254Z,99162.03
2022-11-16T21:51:11.144Z,99143.59
2022-11-16T21:53:38.604Z,99138.66
2022-11-16T21:56:07.078Z,99143.34
2022-11-16T21:58:33.902Z,99158.16
2022-11-16T22:01:02.121Z,99148.03
2022-11-16T22:03:31.267Z,99135.81
2022-11-16T22:06:18.941Z,99133.97
2022-11-16T22:08:46.407Z,99125.31
2022-11-16T22:11:13.781Z,99118.41
2022-11-16T22:13:40.980Z,99121.56
2022-11-16T22:16:12.750Z,99111.88
2022-11-16T22:18:39.687Z,99115.69
2022-11-16T22:21:07.019Z,99117.28
2022-11-16T22:23:35.537Z,99108.75
2022-11-16T22:26:08.634Z,99109.19
2022-11-16T22:28:36.146Z,99108.66
2022-11-16T22:31:10.756Z,99105.00
2022-11-16T22:33:37.978Z,99110.84
2022-11-16T22:36:05.842Z,99119.72
2022-11-16T22:38:33.728Z,99113.41
2022-11-16T22:41:00.504Z,99115.84
2022-11-16T22:43:28.927Z,99112.22
2022-11-16T22:45:59.978Z,99128.25
2022-11-16T22:48:34.263Z,99139.16
2022-11-16T22:51:15.285Z,99150.44
2022-11-16T22:53:42.170Z,99151.28
2022-11-16T22:56:09.837Z,99140.84
2022-11-16T22:58:37.930Z,99134.44
2022-11-16T23:01:06.102Z,99123.84
2022-11-16T23:03:33.279Z,99123.22
2022-11-16T23:06:00.356Z,99121.41
2022-11-16T23:08:27.473Z,99110.94
2022-11-16T23:11:16.721Z,99118.13
2022-11-16T23:14:02.669Z,99115.53
2022-11-16T23:16:29.513Z,99110.00
2022-11-16T23:18:56.704Z,99108.19
2022-11-16T23:21:42.177Z,99117.16
2022-11-16T23:24:32.149Z,99113.53
2022-11-16T23:27:19.045Z,99110.09
2022-11-16T23:29:46.026Z,99116.19
2022-11-16T23:32:12.979Z,99114.25
2022-11-16T23:34:39.715Z,99107.94
2022-11-16T23:37:07.482Z,99115.00
2022-11-16T23:39:34.512Z,99115.84
2022-11-16T23:42:19.934Z,99113.06
2022-11-16T23:44:46.850Z,99111.09
2022-11-16T23:47:13.695Z,99121.69
2022-11-16T23:49:40.830Z,99125.34
2022-11-16T23:52:07.749Z,99127.88
2022-11-16T23:54:34.518Z,99138.56
2022-11-16T23:57:01.345Z,99119.34
2022-11-16T23:59:30.316Z,99124.91
